createdAt,value
2017-10-17T00:00:23.356Z,987.2
2017-10-17T00:01:25.227Z,987.2
2017-10-17T00:02:27.120Z,987.2
2017-10-17T00:03:28.987Z,987.2
2017-10-17T00:04:30.901Z,987.2
2017-10-17T00:05:32.952Z,987.2
2017-10-17T00:06:34.835Z,987.2
2017-10-17T00:07:36.768Z,987.2
2017-10-17T00:08:38.682Z,987.1
2017-10-17T00:09:40.551Z,987.2
2017-10-17T00:10:42.442Z,987.1
2017-10-17T00:11:44.283Z,987.1
2017-10-17T00:12:46.194Z,987.2
2017-10-17T00:13:48.039Z,987.1
2017-10-17T00:14:49.985Z,987.1
2017-10-17T00:15:51.882Z,987.1
2017-10-17T00:16:53.797Z,987.1
2017-10-17T00:17:55.701Z,987.1
2017-10-17T00:18:57.764Z,987.1
2017-10-17T00:19:59.789Z,987.1
2017-10-17T00:21:01.732Z,987
2017-10-17T00:22:03.738Z,987.1
2017-10-17T00:23:05.691Z,987.1
2017-10-17T00:24:07.585Z,987.1
2017-10-17T00:25:09.492Z,987.1
2017-10-17T00:26:11.400Z,987.1
2017-10-17T00:27:13.369Z,987.1
2017-10-17T00:28:15.226Z,987.1
2017-10-17T00:29:17.232Z,987.2
2017-10-17T00:30:19.215Z,987.2
2017-10-17T00:31:21.097Z,987.1
2017-10-17T00:32:22.950Z,987.1
2017-10-17T00:33:24.889Z,987.1
2017-10-17T00:34:26.850Z,987.1
2017-10-17T00:35:28.798Z,987.1
2017-10-17T00:36:30.762Z,987.2
2017-10-17T00:37:32.616Z,987.2
2017-10-17T00:38:34.776Z,987.1
2017-10-17T00:39:36.753Z,987.1
2017-10-17T00:40:38.681Z,987.1
2017-10-17T00:41:40.491Z,987
2017-10-17T00:42:42.321Z,987
2017-10-17T00:43:44.211Z,987.1
2017-10-17T00:44:46.084Z,987
2017-10-17T00:45:48.052Z,987
2017-10-17T00:46:49.975Z,987
2017-10-17T00:47:51.861Z,987
2017-10-17T00:48:53.739Z,987.1
2017-10-17T00:49:55.688Z,987
2017-10-17T00:50:57.583Z,986.9
2017-10-17T00:51:59.498Z,987
2017-10-17T00:53:01.539Z,986.9
2017-10-17T00:54:03.448Z,987
2017-10-17T00:55:05.423Z,986.9
2017-10-17T00:56:07.285Z,986.9
2017-10-17T00:57:09.140Z,986.9
2017-10-17T00:58:11.070Z,986.9
2017-10-17T00:59:12.923Z,986.8
2017-10-17T01:00:14.898Z,986.9
2017-10-17T01:01:16.824Z,986.9
2017-10-17T01:02:18.786Z,987
2017-10-17T01:03:20.901Z,987
2017-10-17T01:04:23.004Z,987
2017-10-17T01:05:24.931Z,987
2017-10-17T01:06:26.939Z,986.9
2017-10-17T01:07:28.886Z,986.9
2017-10-17T01:08:30.928Z,986.9
2017-10-17T01:09:32.803Z,986.9
2017-10-17T01:10:35.056Z,986.9
2017-10-17T01:11:36.945Z,986.9
2017-10-17T01:12:38.829Z,986.9
2017-10-17T01:13:40.756Z,986.9
2017-10-17T01:14:42.687Z,986.9
2017-10-17T01:15:44.661Z,986.9
2017-10-17T01:16:46.563Z,986.9
2017-10-17T01:17:48.383Z,986.9
2017-10-17T01:18:50.358Z,986.9
2017-10-17T01:19:52.290Z,986.9
2017-10-17T01:20:54.177Z,986.9
2017-10-17T01:21:56.061Z,986.9
2017-10-17T01:22:57.926Z,986.9
2017-10-17T01:23:59.793Z,986.9
2017-10-17T01:25:01.651Z,986.9
2017-10-17T01:26:03.708Z,986.9
2017-10-17T01:27:05.614Z,986.9
2017-10-17T01:28:07.663Z,986.8
2017-10-17T01:29:09.538Z,986.8
2017-10-17T01:30:11.476Z,986.8
2017-10-17T01:31:13.394Z,986.8
2017-10-17T01:32:15.371Z,986.8
2017-10-17T01:33:17.312Z,986.8
2017-10-17T01:34:19.211Z,986.8
2017-10-17T01:35:21.100Z,986.8
2017-10-17T01:36:23.114Z,986.7
2017-10-17T01:37:24.987Z,986.8
2017-10-17T01:38:26.863Z,986.8
2017-10-17T01:39:28.807Z,986.9
2017-10-17T01:40:30.758Z,986.9
2017-10-17T01:41:32.733Z,986.9
2017-10-17T01:42:34.691Z,986.9
2017-10-17T01:43:36.846Z,986.9
2017-10-17T01:44:38.795Z,986.9
2017-10-17T01:45:41.342Z,986.9
2017-10-17T01:46:43.317Z,986.9
2017-10-17T01:47:45.202Z,986.9
2017-10-17T01:48:47.032Z,986.9
2017-10-17T01:49:48.884Z,986.9
2017-10-17T01:50:50.772Z,986.9
2017-10-17T01:51:52.848Z,986.8
2017-10-17T01:52:54.768Z,986.9
2017-10-17T01:53:56.777Z,986.9
2017-10-17T01:54:58.658Z,986.9
2017-10-17T01:56:00.706Z,986.9
2017-10-17T01:57:02.649Z,986.9
2017-10-17T01:58:04.605Z,986.9
2017-10-17T01:59:06.509Z,986.9
2017-10-17T02:00:08.425Z,986.9
2017-10-17T02:01:10.326Z,986.9
2017-10-17T02:02:12.430Z,986.9
2017-10-17T02:03:14.348Z,986.9
2017-10-17T02:04:16.307Z,986.9
2017-10-17T02:05:18.301Z,986.9
2017-10-17T02:06:20.231Z,986.9
2017-10-17T02:07:22.211Z,986.9
2017-10-17T02:08:24.117Z,986.9
2017-10-17T02:09:26.011Z,986.9
2017-10-17T02:10:27.842Z,986.9
2017-10-17T02:11:29.676Z,986.9
2017-10-17T02:12:31.566Z,986.9
2017-10-17T02:13:33.603Z,986.9
2017-10-17T02:14:35.491Z,986.8
2017-10-17T02:15:37.502Z,986.9
2017-10-17T02:16:39.318Z,986.9
2017-10-17T02:17:41.217Z,986.9
2017-10-17T02:18:43.073Z,986.9
2017-10-17T02:19:45.017Z,986.9
2017-10-17T02:20:46.930Z,986.9
2017-10-17T02:21:48.847Z,986.8
2017-10-17T02:22:50.798Z,986.9
2017-10-17T02:23:52.651Z,986.8
2017-10-17T02:24:54.607Z,986.8
2017-10-17T02:25:56.543Z,986.8
2017-10-17T02:26:58.503Z,986.8
2017-10-17T02:28:00.513Z,986.7
2017-10-17T02:29:02.392Z,986.7
2017-10-17T02:30:04.300Z,986.7
2017-10-17T02:31:06.227Z,986.7
2017-10-17T02:32:08.207Z,986.7
2017-10-17T02:33:10.119Z,986.7
2017-10-17T02:34:11.993Z,986.7
2017-10-17T02:35:13.977Z,986.7
2017-10-17T02:36:15.913Z,986.7
2017-10-17T02:37:17.772Z,986.7
2017-10-17T02:38:19.688Z,986.7
2017-10-17T02:39:21.616Z,986.6
2017-10-17T02:40:23.538Z,986.6
2017-10-17T02:41:25.462Z,986.7
2017-10-17T02:42:27.336Z,986.6
2017-10-17T02:43:29.234Z,986.6
2017-10-17T02:44:31.175Z,986.6
2017-10-17T02:45:33.142Z,986.6
2017-10-17T02:46:35.021Z,986.7
2017-10-17T02:47:36.897Z,986.6
2017-10-17T02:48:38.894Z,986.6
2017-10-17T02:49:40.793Z,986.6
2017-10-17T02:50:42.688Z,986.6
2017-10-17T02:51:44.591Z,986.6
2017-10-17T02:52:46.544Z,986.5
2017-10-17T02:53:48.466Z,986.5
2017-10-17T02:54:50.415Z,986.6
2017-10-17T02:55:52.274Z,986.5
2017-10-17T02:56:54.148Z,986.4
2017-10-17T02:57:56.090Z,986.4
2017-10-17T02:58:58.005Z,986.5
2017-10-17T02:59:59.922Z,986.5
2017-10-17T03:01:01.863Z,986.5
2017-10-17T03:02:03.774Z,986.5
2017-10-17T03:03:05.745Z,986.5
2017-10-17T03:04:07.723Z,986.5
2017-10-17T03:05:09.649Z,986.5
2017-10-17T03:06:11.574Z,986.5
2017-10-17T03:07:13.412Z,986.5
2017-10-17T03:08:15.342Z,986.5
2017-10-17T03:09:17.286Z,986.4
2017-10-17T03:10:19.231Z,986.5
2017-10-17T03:11:21.098Z,986.5
2017-10-17T03:12:23.021Z,986.5
2017-10-17T03:13:24.911Z,986.4
2017-10-17T03:14:26.855Z,986.5
2017-10-17T03:15:28.721Z,986.4
2017-10-17T03:16:30.585Z,986.4
2017-10-17T03:17:32.445Z,986.3
2017-10-17T03:18:34.349Z,986.4
2017-10-17T03:19:36.288Z,986.4
2017-10-17T03:20:38.130Z,986.5
2017-10-17T03:21:40.029Z,986.3
2017-10-17T03:22:41.924Z,986.4
2017-10-17T03:23:43.837Z,986.4
2017-10-17T03:24:45.855Z,986.4
2017-10-17T03:25:47.773Z,986.5
2017-10-17T03:26:49.688Z,986.4
2017-10-17T03:27:51.617Z,986.4
2017-10-17T03:28:53.504Z,986.3
2017-10-17T03:29:55.387Z,986.4
2017-10-17T03:30:57.241Z,986.4
2017-10-17T03:31:59.125Z,986.5
2017-10-17T03:33:00.985Z,986.3
2017-10-17T03:34:02.881Z,986.4
2017-10-17T03:35:04.795Z,986.3
2017-10-17T03:36:06.731Z,986.3
2017-10-17T03:37:08.620Z,986.3
2017-10-17T03:38:10.504Z,986.3
2017-10-17T03:39:12.486Z,986.2
2017-10-17T03:40:14.377Z,986.3
2017-10-17T03:41:16.339Z,986.2
2017-10-17T03:42:18.278Z,986.2
2017-10-17T03:43:20.159Z,986.2
2017-10-17T03:44:22.062Z,986.2
2017-10-17T03:45:24.163Z,986.3
2017-10-17T03:46:26.066Z,986.2
2017-10-17T03:47:27.911Z,986.2
2017-10-17T03:48:29.789Z,986.1
2017-10-17T03:49:31.744Z,986.2
2017-10-17T03:50:33.586Z,986.2
2017-10-17T03:51:35.782Z,986.2
2017-10-17T03:52:37.692Z,986.2
2017-10-17T03:53:39.673Z,986.1
2017-10-17T03:54:41.596Z,986.1
2017-10-17T03:55:43.570Z,986.2
2017-10-17T03:56:45.466Z,986.1
2017-10-17T03:57:47.440Z,986.1
2017-10-17T03:58:49.341Z,986.2
2017-10-17T03:59:51.224Z,986.1
2017-10-17T04:00:53.130Z,986.2
2017-10-17T04:01:55.024Z,986
2017-10-17T04:02:56.918Z,986.1
2017-10-17T04:03:58.773Z,986.2
2017-10-17T04:05:00.686Z,986.3
2017-10-17T04:06:02.631Z,986.2
2017-10-17T04:07:04.581Z,986.2
2017-10-17T04:08:06.580Z,986.2
2017-10-17T04:09:08.515Z,986.2
2017-10-17T04:10:10.455Z,986.2
2017-10-17T04:11:12.440Z,986.2
2017-10-17T04:12:14.571Z,986.2
2017-10-17T04:13:16.554Z,986.4
2017-10-17T04:14:18.479Z,986.2
2017-10-17T04:15:20.416Z,986.3
2017-10-17T04:16:22.322Z,986.3
2017-10-17T04:17:24.225Z,986.3
2017-10-17T04:18:26.105Z,986.3
2017-10-17T04:19:28.036Z,986.3
2017-10-17T04:20:29.904Z,986.3
2017-10-17T04:21:31.818Z,986.3
2017-10-17T04:22:33.694Z,986.3
2017-10-17T04:23:35.644Z,986.3
2017-10-17T04:24:37.527Z,986.3
2017-10-17T04:25:39.492Z,986.3
2017-10-17T04:26:41.350Z,986.4
2017-10-17T04:27:43.254Z,986.3
2017-10-17T04:28:45.204Z,986.3
2017-10-17T04:29:47.077Z,986.3
2017-10-17T04:30:48.975Z,986.3
2017-10-17T04:31:50.866Z,986.3
2017-10-17T04:32:52.758Z,986.3
2017-10-17T04:33:54.714Z,986.2
2017-10-17T04:34:56.863Z,986.1
2017-10-17T04:35:58.749Z,986.1
2017-10-17T04:37:00.746Z,986.2
2017-10-17T04:38:02.815Z,986.2
2017-10-17T04:39:04.830Z,986.2
2017-10-17T04:40:06.749Z,986.2
2017-10-17T04:41:08.733Z,986.2
2017-10-17T04:42:10.759Z,986.2
2017-10-17T04:43:12.712Z,986.3
2017-10-17T04:44:14.636Z,986.2
2017-10-17T04:45:16.542Z,986.3
2017-10-17T04:46:18.740Z,986.3
2017-10-17T04:47:20.691Z,986.3
2017-10-17T04:48:22.603Z,986.3
2017-10-17T04:49:24.512Z,986.3
2017-10-17T04:50:26.342Z,986.3
2017-10-17T04:51:28.189Z,986.3
2017-10-17T04:52:30.162Z,986.3
2017-10-17T04:53:32.106Z,986.3
2017-10-17T04:54:33.956Z,986.3
2017-10-17T04:55:35.950Z,986.3
2017-10-17T04:56:38.062Z,986.4
2017-10-17T04:57:40.043Z,986.5
2017-10-17T04:58:41.904Z,986.4
2017-10-17T04:59:43.849Z,986.3
2017-10-17T05:00:45.740Z,986.4
2017-10-17T05:01:47.638Z,986.4
2017-10-17T05:02:49.760Z,986.4
2017-10-17T05:03:51.611Z,986.4
2017-10-17T05:04:53.514Z,986.5
2017-10-17T05:05:55.612Z,986.4
2017-10-17T05:06:57.498Z,986.4
2017-10-17T05:07:59.418Z,986.4
2017-10-17T05:09:01.377Z,986.5
2017-10-17T05:10:03.347Z,986.4
2017-10-17T05:11:05.375Z,986.4
2017-10-17T05:12:07.283Z,986.4
2017-10-17T05:13:09.225Z,986.4
2017-10-17T05:14:11.186Z,986.4
2017-10-17T05:15:13.134Z,986.5
2017-10-17T05:16:15.530Z,986.5
2017-10-17T05:17:17.403Z,986.3
2017-10-17T05:18:19.526Z,986.4
2017-10-17T05:19:21.446Z,986.5
2017-10-17T05:20:23.447Z,986.5
2017-10-17T05:21:25.351Z,986.4
2017-10-17T05:22:27.402Z,986.3
2017-10-17T05:23:29.354Z,986.4
2017-10-17T05:24:31.257Z,986.4
2017-10-17T05:25:33.156Z,986.4
2017-10-17T05:26:35.035Z,986.5
2017-10-17T05:27:36.948Z,986.4
2017-10-17T05:28:38.764Z,986.4
2017-10-17T05:29:40.681Z,986.4
2017-10-17T05:30:42.608Z,986.4
2017-10-17T05:31:44.535Z,986.4
2017-10-17T05:32:46.413Z,986.4
2017-10-17T05:33:48.325Z,986.3
2017-10-17T05:34:50.234Z,986.3
2017-10-17T05:35:52.150Z,986.4
2017-10-17T05:36:54.050Z,986.5
2017-10-17T05:37:56.011Z,986.4
2017-10-17T05:38:57.946Z,986.4
2017-10-17T05:39:59.863Z,986.5
2017-10-17T05:41:01.802Z,986.5
2017-10-17T05:42:03.688Z,986.5
2017-10-17T05:43:05.586Z,986.6
2017-10-17T05:44:07.518Z,986.6
2017-10-17T05:45:09.395Z,986.5
2017-10-17T05:46:11.235Z,986.6
2017-10-17T05:47:13.160Z,986.6
2017-10-17T05:48:14.997Z,986.6
2017-10-17T05:49:16.914Z,986.6
2017-10-17T05:50:18.894Z,986.6
2017-10-17T05:51:21.048Z,986.6
2017-10-17T05:52:22.938Z,986.6
2017-10-17T05:53:24.818Z,986.6
2017-10-17T05:54:26.755Z,986.7
2017-10-17T05:55:28.671Z,986.6
2017-10-17T05:56:30.558Z,986.6
2017-10-17T05:57:32.497Z,986.7
2017-10-17T05:58:34.379Z,986.7
2017-10-17T05:59:36.355Z,986.6
2017-10-17T06:00:38.213Z,986.7
2017-10-17T06:01:40.136Z,986.6
2017-10-17T06:02:42.018Z,986.7
2017-10-17T06:03:43.906Z,986.7
2017-10-17T06:04:45.866Z,986.8
2017-10-17T06:05:47.782Z,986.7
2017-10-17T06:06:49.651Z,986.8
2017-10-17T06:07:51.688Z,986.8
2017-10-17T06:08:53.529Z,986.8
2017-10-17T06:09:55.400Z,986.8
2017-10-17T06:10:57.275Z,986.8
2017-10-17T06:11:59.210Z,986.8
2017-10-17T06:13:01.109Z,986.7
2017-10-17T06:14:03.055Z,986.8
2017-10-17T06:15:04.959Z,986.8
2017-10-17T06:16:06.855Z,986.8
2017-10-17T06:17:09.004Z,986.9
2017-10-17T06:18:10.969Z,986.8
2017-10-17T06:19:12.890Z,986.9
2017-10-17T06:20:14.857Z,986.9
2017-10-17T06:21:16.749Z,986.8
2017-10-17T06:22:18.691Z,986.8
2017-10-17T06:23:20.595Z,986.8
2017-10-17T06:24:22.588Z,986.9
2017-10-17T06:25:24.508Z,986.8
2017-10-17T06:26:26.462Z,986.9
2017-10-17T06:27:28.383Z,986.8
2017-10-17T06:28:30.304Z,986.9
2017-10-17T06:29:32.212Z,986.9
2017-10-17T06:30:34.111Z,986.8
2017-10-17T06:31:36.006Z,986.9
2017-10-17T06:32:37.870Z,986.9
2017-10-17T06:33:39.795Z,986.9
2017-10-17T06:34:41.638Z,986.9
2017-10-17T06:35:43.818Z,986.9
2017-10-17T06:36:45.718Z,986.9
2017-10-17T06:37:47.732Z,986.8
2017-10-17T06:38:49.929Z,986.9
2017-10-17T06:39:51.831Z,987
2017-10-17T06:40:53.862Z,987
2017-10-17T06:41:55.821Z,987
2017-10-17T06:42:57.759Z,987
2017-10-17T06:43:59.992Z,987.1
2017-10-17T06:45:01.960Z,987
2017-10-17T06:46:03.999Z,987.1
2017-10-17T06:47:05.907Z,987.1
2017-10-17T06:48:07.844Z,987
2017-10-17T06:49:09.883Z,987.1
2017-10-17T06:50:11.864Z,987.1
2017-10-17T06:51:13.752Z,987.1
2017-10-17T06:52:15.625Z,987.1
2017-10-17T06:53:17.501Z,987.2
2017-10-17T06:54:19.385Z,987.2
2017-10-17T06:55:21.296Z,987.1
2017-10-17T06:56:23.530Z,987.2
2017-10-17T06:57:26.020Z,987.3
2017-10-17T06:58:27.827Z,987.1
2017-10-17T06:59:29.749Z,987.2
2017-10-17T07:00:31.619Z,987.1
2017-10-17T07:01:33.570Z,987.2
2017-10-17T07:02:35.503Z,987.2
2017-10-17T07:03:37.384Z,987.2
2017-10-17T07:04:39.328Z,987.2
2017-10-17T07:05:41.310Z,987.2
2017-10-17T07:06:43.271Z,987.2
2017-10-17T07:07:45.135Z,987.3
2017-10-17T07:08:47.082Z,987.2
2017-10-17T07:09:48.930Z,987.2
2017-10-17T07:10:50.851Z,987.3
2017-10-17T07:11:52.817Z,987.3
2017-10-17T07:12:54.691Z,987.3
2017-10-17T07:13:56.643Z,987.2
2017-10-17T07:14:58.580Z,987.2
2017-10-17T07:16:00.488Z,987.2
2017-10-17T07:17:02.438Z,987.2
2017-10-17T07:18:04.341Z,987.2
2017-10-17T07:19:06.177Z,987.3
2017-10-17T07:20:08.221Z,987.3
2017-10-17T07:21:10.144Z,987.2
2017-10-17T07:22:12.053Z,987.2
2017-10-17T07:23:13.955Z,987.3
2017-10-17T07:24:15.922Z,987.2
2017-10-17T07:25:17.728Z,987.3
2017-10-17T07:26:19.629Z,987.2
2017-10-17T07:27:21.553Z,987.2
2017-10-17T07:28:23.776Z,987.3
2017-10-17T07:29:25.829Z,987.3
2017-10-17T07:30:27.754Z,987.2
2017-10-17T07:31:29.649Z,987.4
2017-10-17T07:32:31.608Z,987.3
2017-10-17T07:33:33.493Z,987.3
2017-10-17T07:34:35.360Z,987.1
2017-10-17T07:35:37.291Z,987.2
2017-10-17T07:36:39.174Z,987.3
2017-10-17T07:37:41.112Z,987.2
2017-10-17T07:38:42.946Z,987.3
2017-10-17T07:39:44.853Z,987.3
2017-10-17T07:40:46.789Z,987.3
2017-10-17T07:41:48.678Z,987.3
2017-10-17T07:42:50.592Z,987.3
2017-10-17T07:43:52.446Z,987.3
2017-10-17T07:44:54.341Z,987.3
2017-10-17T07:45:56.271Z,987.4
2017-10-17T07:46:58.528Z,987.3
2017-10-17T07:48:00.414Z,987.4
2017-10-17T07:49:02.318Z,987.3
2017-10-17T07:50:04.257Z,987.3
2017-10-17T07:51:06.262Z,987.3
2017-10-17T07:52:08.108Z,987.3
2017-10-17T07:53:09.974Z,987.3
2017-10-17T07:54:11.974Z,987.3
2017-10-17T07:55:13.823Z,987.3
2017-10-17T07:56:15.719Z,987.3
2017-10-17T07:57:17.657Z,987.3
2017-10-17T07:58:19.595Z,987.4
2017-10-17T07:59:21.507Z,987.4
2017-10-17T08:00:23.381Z,987.3
2017-10-17T08:01:25.315Z,987.2
2017-10-17T08:02:27.269Z,987.2
2017-10-17T08:03:29.197Z,987.3
2017-10-17T08:04:31.136Z,987.3
2017-10-17T08:05:33.039Z,987.2
2017-10-17T08:06:34.978Z,987.3
2017-10-17T08:07:36.915Z,987.2
2017-10-17T08:08:38.807Z,987.3
2017-10-17T08:09:40.670Z,987.3
2017-10-17T08:10:42.576Z,987.3
2017-10-17T08:11:44.504Z,987.2
2017-10-17T08:12:46.355Z,987.3
2017-10-17T08:13:48.316Z,987.3
2017-10-17T08:14:50.259Z,987.3
2017-10-17T08:15:52.089Z,987.4
2017-10-17T08:16:54.005Z,987.3
2017-10-17T08:17:55.913Z,987.2
2017-10-17T08:18:57.888Z,987.2
2017-10-17T08:19:59.765Z,987.2
2017-10-17T08:21:01.754Z,987.2
2017-10-17T08:22:03.605Z,987.2
2017-10-17T08:23:05.539Z,987.2
2017-10-17T08:24:07.526Z,987.1
2017-10-17T08:25:09.423Z,987.2
2017-10-17T08:26:11.388Z,987.2
2017-10-17T08:27:13.372Z,987.1
2017-10-17T08:28:15.354Z,987.2
2017-10-17T08:29:17.290Z,987.3
2017-10-17T08:30:19.370Z,987.2
2017-10-17T08:31:21.272Z,987.2
2017-10-17T08:32:23.166Z,987.2
2017-10-17T08:33:25.116Z,987.2
2017-10-17T08:34:27.049Z,987.1
2017-10-17T08:35:28.935Z,987.2
2017-10-17T08:36:30.820Z,987.1
2017-10-17T08:37:32.690Z,987.1
2017-10-17T08:38:34.636Z,987.1
2017-10-17T08:39:36.588Z,987
2017-10-17T08:40:38.509Z,987.1
2017-10-17T08:41:40.405Z,987
2017-10-17T08:42:42.325Z,987.1
2017-10-17T08:43:44.254Z,987
2017-10-17T08:44:46.249Z,987.1
2017-10-17T08:45:48.240Z,987.1
2017-10-17T08:46:50.258Z,987.5
2017-10-17T08:47:52.157Z,987.5
2017-10-17T08:48:54.105Z,987.4
2017-10-17T08:49:56.069Z,986.9
2017-10-17T08:50:57.938Z,987.4
2017-10-17T08:51:59.865Z,987.7
2017-10-17T08:53:01.841Z,987.3
2017-10-17T08:54:03.813Z,987.4
2017-10-17T08:55:05.746Z,987.6
2017-10-17T08:56:07.666Z,987.5
2017-10-17T08:57:09.583Z,987.6
2017-10-17T08:58:11.515Z,987.4
2017-10-17T08:59:13.500Z,987.5
2017-10-17T09:00:15.530Z,987.9
2017-10-17T09:01:17.514Z,987.4
2017-10-17T09:02:19.444Z,987.8
2017-10-17T09:03:21.352Z,987.2
2017-10-17T09:04:23.265Z,987
2017-10-17T09:05:25.479Z,987.4
2017-10-17T09:06:27.381Z,987.6
2017-10-17T09:07:29.270Z,987.1
2017-10-17T09:08:31.171Z,987.7
2017-10-17T09:09:33.131Z,987.8
2017-10-17T09:10:35.063Z,987.3
2017-10-17T09:11:36.905Z,987.6
2017-10-17T09:12:38.790Z,987.7
2017-10-17T09:13:40.784Z,987.8
2017-10-17T09:14:42.725Z,987.5
2017-10-17T09:15:45.035Z,987.6
2017-10-17T09:16:46.961Z,987.7
2017-10-17T09:17:48.891Z,987.3
2017-10-17T09:18:50.807Z,987.8
2017-10-17T09:19:52.728Z,987.3
2017-10-17T09:20:54.600Z,987.4
2017-10-17T09:21:56.618Z,987.2
2017-10-17T09:22:58.548Z,987.5
2017-10-17T09:24:00.467Z,987.7
2017-10-17T09:25:02.379Z,987.7
2017-10-17T09:26:04.371Z,987.4
2017-10-17T09:27:06.562Z,987.3
2017-10-17T09:28:08.474Z,987.8
2017-10-17T09:29:10.407Z,987.6
2017-10-17T09:30:12.353Z,987.3
2017-10-17T09:31:14.662Z,987.4
2017-10-17T09:32:16.576Z,987.5
2017-10-17T09:33:18.526Z,987.7
2017-10-17T09:34:20.410Z,987.5
2017-10-17T09:35:22.376Z,987.2
2017-10-17T09:36:24.580Z,987.5
2017-10-17T09:37:26.531Z,987.3
2017-10-17T09:38:28.480Z,986.8
2017-10-17T09:39:30.458Z,987.1
2017-10-17T09:40:32.383Z,987.3
2017-10-17T09:41:34.301Z,987.5
2017-10-17T09:42:36.208Z,987.1
2017-10-17T09:43:38.128Z,986.7
2017-10-17T09:44:40.002Z,986.7
2017-10-17T09:45:41.884Z,986.8
2017-10-17T09:46:43.803Z,986.9
2017-10-17T09:47:45.707Z,986.9
2017-10-17T09:48:47.690Z,986.9
2017-10-17T09:49:49.636Z,986.9
2017-10-17T09:50:51.541Z,986.9
2017-10-17T09:51:53.681Z,986.9
2017-10-17T09:52:55.573Z,986.9
2017-10-17T09:53:57.536Z,986.9
2017-10-17T09:54:59.411Z,986.8
2017-10-17T09:56:01.338Z,986.9
2017-10-17T09:57:03.553Z,986.9
2017-10-17T09:58:05.511Z,986.9
2017-10-17T09:59:07.803Z,986.9
2017-10-17T10:00:09.718Z,986.9
2017-10-17T10:01:11.629Z,986.8
2017-10-17T10:02:13.548Z,986.9
2017-10-17T10:03:15.454Z,986.9
2017-10-17T10:04:17.335Z,986.9
2017-10-17T10:05:19.231Z,986.9
2017-10-17T10:06:21.109Z,986.9
2017-10-17T10:07:23.101Z,986.9
2017-10-17T10:08:25.022Z,986.9
2017-10-17T10:09:26.938Z,986.8
2017-10-17T10:10:28.864Z,986.8
2017-10-17T10:11:30.780Z,986.8
2017-10-17T10:12:32.897Z,986.8
2017-10-17T10:13:34.748Z,986.9
2017-10-17T10:14:36.650Z,986.9
2017-10-17T10:15:38.613Z,986.8
2017-10-17T10:16:40.538Z,986.8
2017-10-17T10:17:42.508Z,986.8
2017-10-17T10:18:44.430Z,986.8
2017-10-17T10:19:46.362Z,986.8
2017-10-17T10:20:48.280Z,986.9
2017-10-17T10:21:50.139Z,986.8
2017-10-17T10:22:52.366Z,986.9
2017-10-17T10:23:54.284Z,986.9
2017-10-17T10:24:56.207Z,986.9
2017-10-17T10:25:58.185Z,986.9
2017-10-17T10:27:00.154Z,986.9
2017-10-17T10:28:02.205Z,986.9
2017-10-17T10:29:04.145Z,986.9
2017-10-17T10:30:06.093Z,986.9
2017-10-17T10:31:08.014Z,986.9
2017-10-17T10:32:09.911Z,986.9
2017-10-17T10:33:11.891Z,986.8
2017-10-17T10:34:13.855Z,986.8
2017-10-17T10:35:15.761Z,986.8
2017-10-17T10:36:17.619Z,986.8
2017-10-17T10:37:19.597Z,986.9
2017-10-17T10:38:21.513Z,986.8
2017-10-17T10:39:23.455Z,986.8
2017-10-17T10:40:25.405Z,986.8
2017-10-17T10:41:27.323Z,986.8
2017-10-17T10:42:29.289Z,986.8
2017-10-17T10:43:31.487Z,986.8
2017-10-17T10:44:33.539Z,986.7
2017-10-17T10:45:35.449Z,986.7
2017-10-17T10:46:37.378Z,986.7
2017-10-17T10:47:39.350Z,986.7
2017-10-17T10:48:41.485Z,986.7
2017-10-17T10:49:43.408Z,986.7
2017-10-17T10:50:45.360Z,986.6
2017-10-17T10:51:47.384Z,986.6
2017-10-17T10:52:49.285Z,986.6
2017-10-17T10:53:51.256Z,986.6
2017-10-17T10:54:53.127Z,986.6
2017-10-17T10:55:55.304Z,986.6
2017-10-17T10:56:57.352Z,986.6
2017-10-17T10:57:59.242Z,986.5
2017-10-17T10:59:01.141Z,986.5
2017-10-17T11:00:03.107Z,986.5
2017-10-17T11:01:05.065Z,986.5
2017-10-17T11:02:06.955Z,986.5
2017-10-17T11:03:08.909Z,986.5
2017-10-17T11:04:11.280Z,986.5
2017-10-17T11:05:13.208Z,986.5
2017-10-17T11:06:15.104Z,986.4
2017-10-17T11:07:16.961Z,986.4
2017-10-17T11:08:18.900Z,986.4
2017-10-17T11:09:20.879Z,986.4
2017-10-17T11:10:22.769Z,986.4
2017-10-17T11:11:24.669Z,986.4
2017-10-17T11:12:26.594Z,986.4
2017-10-17T11:13:28.505Z,986.4
2017-10-17T11:14:30.742Z,986.4
2017-10-17T11:15:32.687Z,986.4
2017-10-17T11:16:34.566Z,986.4
2017-10-17T11:17:36.451Z,986.3
2017-10-17T11:18:38.381Z,986.4
2017-10-17T11:19:40.300Z,986.3
2017-10-17T11:20:42.173Z,986.2
2017-10-17T11:21:44.113Z,986.3
2017-10-17T11:22:46.020Z,986.2
2017-10-17T11:23:48.136Z,986.2
2017-10-17T11:24:50.093Z,986.2
2017-10-17T11:25:52.045Z,986.2
2017-10-17T11:26:53.954Z,986.1
2017-10-17T11:27:55.863Z,986.2
2017-10-17T11:28:57.765Z,986.2
2017-10-17T11:30:00.063Z,986.2
2017-10-17T11:31:02.011Z,986.2
2017-10-17T11:32:03.938Z,986.1
2017-10-17T11:33:05.797Z,986.2
2017-10-17T11:34:07.677Z,986.2
2017-10-17T11:35:09.890Z,986.1
2017-10-17T11:36:11.879Z,986
2017-10-17T11:37:13.797Z,986.1
2017-10-17T11:38:15.781Z,986.1
2017-10-17T11:39:17.707Z,986.1
2017-10-17T11:40:19.657Z,986
2017-10-17T11:41:21.584Z,986
2017-10-17T11:42:23.740Z,986
2017-10-17T11:43:25.677Z,986
2017-10-17T11:44:27.569Z,986
2017-10-17T11:45:29.534Z,985.9
2017-10-17T11:46:31.461Z,985.9
2017-10-17T11:47:33.352Z,985.9
2017-10-17T11:48:35.276Z,985.8
2017-10-17T11:49:37.315Z,985.9
2017-10-17T11:50:39.550Z,985.9
2017-10-17T11:51:41.484Z,985.9
2017-10-17T11:52:43.370Z,985.9
2017-10-17T11:53:45.286Z,985.9
2017-10-17T11:54:47.264Z,985.9
2017-10-17T11:55:49.188Z,985.8
2017-10-17T11:56:51.077Z,985.8
2017-10-17T11:57:53.043Z,985.9
2017-10-17T11:58:55.018Z,985.8
2017-10-17T11:59:56.926Z,985.8
2017-10-17T12:00:59.131Z,985.8
2017-10-17T12:02:01.060Z,985.8
2017-10-17T12:03:03.006Z,985.7
2017-10-17T12:04:04.869Z,985.7
2017-10-17T12:05:07.077Z,985.7
2017-10-17T12:06:09.019Z,985.7
2017-10-17T12:07:10.987Z,985.7
2017-10-17T12:08:12.866Z,985.7
2017-10-17T12:09:14.848Z,985.6
2017-10-17T12:10:16.746Z,985.6
2017-10-17T12:11:18.985Z,985.6
2017-10-17T12:12:20.843Z,985.6
2017-10-17T12:13:22.791Z,985.6
2017-10-17T12:14:24.649Z,985.6
2017-10-17T12:15:26.545Z,985.6
2017-10-17T12:16:28.436Z,985.5
2017-10-17T12:17:30.694Z,985.5
2017-10-17T12:18:32.635Z,985.5
2017-10-17T12:19:34.552Z,985.5
2017-10-17T12:20:36.482Z,985.5
2017-10-17T12:21:38.380Z,985.5
2017-10-17T12:22:40.289Z,985.4
2017-10-17T12:23:42.212Z,985.4
2017-10-17T12:24:44.122Z,985.4
2017-10-17T12:25:46.026Z,985.4
2017-10-17T12:26:47.939Z,985.4
2017-10-17T12:27:49.826Z,985.4
2017-10-17T12:28:51.719Z,985.4
2017-10-17T12:29:53.690Z,985.4
2017-10-17T12:30:55.594Z,985.4
2017-10-17T12:31:57.588Z,985.4
2017-10-17T12:32:59.468Z,985.4
2017-10-17T12:34:01.441Z,985.4
2017-10-17T12:35:03.462Z,985.4
2017-10-17T12:36:05.380Z,985.3
2017-10-17T12:37:07.306Z,985.3
2017-10-17T12:38:09.202Z,985.3
2017-10-17T12:39:11.120Z,985.3
2017-10-17T12:40:13.017Z,985.2
2017-10-17T12:41:14.949Z,985.2
2017-10-17T12:42:16.915Z,985.2
2017-10-17T12:43:19.116Z,985.2
2017-10-17T12:44:21.068Z,985.1
2017-10-17T12:45:23.099Z,985.1
2017-10-17T12:46:25.029Z,985.1
2017-10-17T12:47:26.953Z,985.1
2017-10-17T12:48:28.897Z,985.1
2017-10-17T12:49:30.838Z,985.1
2017-10-17T12:50:32.752Z,985
2017-10-17T12:51:34.681Z,985
2017-10-17T12:52:37.005Z,985
2017-10-17T12:53:38.854Z,985
2017-10-17T12:54:40.748Z,985.1
2017-10-17T12:55:42.720Z,985
2017-10-17T12:56:44.596Z,985
2017-10-17T12:57:46.830Z,985
2017-10-17T12:58:48.794Z,985
2017-10-17T12:59:50.786Z,985
2017-10-17T13:00:52.734Z,984.9
2017-10-17T13:01:54.676Z,984.9
2017-10-17T13:02:56.604Z,984.9
2017-10-17T13:03:58.526Z,984.9
2017-10-17T13:05:00.509Z,984.9
2017-10-17T13:06:02.459Z,984.9
2017-10-17T13:07:04.387Z,984.9
2017-10-17T13:08:06.611Z,984.9
2017-10-17T13:09:08.528Z,984.9
2017-10-17T13:10:10.476Z,984.9
2017-10-17T13:11:12.406Z,984.9
2017-10-17T13:12:14.347Z,984.8
2017-10-17T13:13:16.261Z,984.8
2017-10-17T13:14:18.201Z,984.8
2017-10-17T13:15:20.232Z,984.8
2017-10-17T13:16:22.269Z,984.7
2017-10-17T13:17:24.192Z,984.8
2017-10-17T13:18:26.261Z,984.8
2017-10-17T13:19:28.203Z,984.8
2017-10-17T13:20:30.089Z,984.8